Time;durP1;ratioP1;P1;durP2;ratioP2;P2;SDS_P1;SDS_P2;PMS_P1;PMS_P2;Temp;Humidity;BMP_temperature;BMP_pressure;BME280_temperature;BME280_humidity;BME280_pressure;Samples;Min_cycle;Max_cycle;Signal;HPM_P1;HPM_P2
2021/10/01 00:00:37;;;;;;;31.10;24.30;;;;;;;6.18;71.17;102027.09;1741079;80;21101;-83
2021/10/01 00:03:03;;;;;;;31.45;25.90;;;;;;;6.15;71.21;102026.00;1751783;81;21175;-83
2021/10/01 00:05:29;;;;;;;26.25;20.88;;;;;;;6.08;71.13;102015.50;1743090;80;21041;-84
2021/10/01 00:07:56;;;;;;;31.93;23.30;;;;;;;6.18;70.95;102023.61;1736873;80;21548;-83
2021/10/01 00:10:24;;;;;;;25.23;20.43;;;;;;;6.26;70.68;102022.53;1742086;81;21580;-85
2021/10/01 00:12:51;;;;;;;28.60;21.80;;;;;;;6.28;70.62;102014.47;1742958;80;21110;-84
2021/10/01 00:15:17;;;;;;;27.65;21.87;;;;;;;6.25;70.69;102018.18;1746313;81;21561;-84
2021/10/01 00:17:44;;;;;;;32.07;23.23;;;;;;;6.22;70.71;102015.30;1752230;80;21077;-85
2021/10/01 00:20:11;;;;;;;30.95;21.37;;;;;;;6.21;70.70;102009.63;1747491;81;21069;-84
2021/10/01 00:22:38;;;;;;;29.20;22.00;;;;;;;6.23;70.60;102013.03;1729696;80;21517;-85
2021/10/01 00:25:06;;;;;;;26.27;22.73;;;;;;;6.22;70.52;102008.68;1750473;80;21170;-84
2021/10/01 00:27:33;;;;;;;32.33;22.33;;;;;;;6.20;70.46;102004.48;1754459;81;20987;-85
2021/10/01 00:29:59;;;;;;;33.42;21.82;;;;;;;6.21;70.44;102012.77;1730020;80;21225;-85
2021/10/01 00:32:26;;;;;;;29.07;21.20;;;;;;;6.26;70.31;102007.96;1747990;80;21073;-85
2021/10/01 00:34:54;;;;;;;25.43;21.40;;;;;;;6.28;70.31;102008.69;1742144;81;20987;-89
2021/10/01 00:37:22;;;;;;;27.13;21.30;;;;;;;6.27;70.43;102008.80;1749966;81;21438;-87
2021/10/01 00:39:49;;;;;;;27.20;21.77;;;;;;;6.26;70.45;102005.80;1758584;80;21587;-87
2021/10/01 00:42:16;;;;;;;;;;;;;;;6.25;70.37;102010.23;1746424;81;21003;-87
2021/10/01 00:44:42;;;;;;;30.13;22.60;;;;;;;6.22;70.31;102002.55;1765357;80;20082;-87
2021/10/01 00:47:08;;;;;;;31.48;22.85;;;;;;;6.13;70.48;102012.03;1759978;81;20959;-86
2021/10/01 00:49:35;;;;;;;31.40;22.50;;;;;;;6.10;70.52;102005.64;1750656;81;21108;-86
2021/10/01 00:52:02;;;;;;;;;;;;;;;6.12;70.54;102006.39;1733048;81;21066;-86
2021/10/01 00:54:28;;;;;;;30.67;21.27;;;;;;;6.17;70.36;102005.53;1751784;81;20133;-86
2021/10/01 00:56:58;;;;;;;28.83;22.57;;;;;;;6.10;70.18;102004.31;1746226;81;21117;-87
2021/10/01 00:59:24;;;;;;;28.43;23.53;;;;;;;6.01;70.47;101999.27;1744494;80;21652;-87
2021/10/01 01:01:51;;;;;;;32.75;23.52;;;;;;;5.87;70.83;101999.92;1718783;81;21010;-88
2021/10/01 01:04:18;;;;;;;28.95;22.65;;;;;;;5.73;71.13;102001.81;1735611;81;21046;-87
2021/10/01 01:07:15;;;;;;;32.33;23.10;;;;;;;5.62;71.52;101996.48;1728903;80;21138;-86
2021/10/01 01:12:48;;;;;;;30.10;25.03;;;;;;;5.33;72.50;101994.22;1775609;76;22681;-50
2021/10/01 01:15:22;;;;;;;35.33;24.17;;;;;;;5.16;73.05;101998.11;1702776;83;22423;-49
2021/10/01 01:17:55;;;;;;;31.90;23.73;;;;;;;5.15;73.24;102001.70;1677452;84;21072;-49
2021/10/01 01:20:35;;;;;;;26.53;21.40;;;;;;;5.26;73.37;102003.08;1672854;83;21086;-50
2021/10/01 01:23:34;;;;;;;34.50;24.30;;;;;;;5.36;73.40;102002.39;1672811;84;21071;-51
2021/10/01 01:26:17;;;;;;;32.33;24.43;;;;;;;5.40;73.47;101999.39;1693558;83;21007;-50
2021/10/01 01:29:10;;;;;;;36.30;25.80;;;;;;;5.40;73.51;101995.92;1704802;83;21861;-50
2021/10/01 01:31:48;;;;;;;36.53;26.80;;;;;;;5.34;73.36;101994.57;1699499;83;21032;-50
2021/10/01 01:34:20;;;;;;;38.60;26.77;;;;;;;5.21;73.36;101992.47;1689467;83;21123;-50
2021/10/01 01:36:53;;;;;;;36.97;28.50;;;;;;;5.09;73.63;101994.22;1674232;84;21551;-49
2021/10/01 01:39:21;;;;;;;35.17;25.67;;;;;;;4.99;73.93;101998.02;1678607;84;21013;-50
2021/10/01 01:41:50;;;;;;;33.30;26.40;;;;;;;4.97;74.20;102003.02;1669372;84;20965;-50
2021/10/01 01:44:17;;;;;;;31.83;24.73;;;;;;;5.06;74.22;102000.55;1680754;82;21080;-50
2021/10/01 01:46:43;;;;;;;41.77;26.93;;;;;;;5.15;74.17;101998.22;1651341;85;21064;-49
2021/10/01 01:49:13;;;;;;;38.73;26.07;;;;;;;5.19;74.24;101997.86;1651410;84;21631;-50
2021/10/01 01:51:41;;;;;;;37.10;26.93;;;;;;;5.17;74.42;102005.06;1678997;84;21136;-50
2021/10/01 01:54:11;;;;;;;32.07;26.70;;;;;;;5.19;74.46;102003.15;1699670;83;21037;-50
2021/10/01 01:56:41;;;;;;;33.00;26.00;;;;;;;5.20;74.32;102006.17;1649079;83;21080;-49
2021/10/01 01:59:09;;;;;;;29.67;24.67;;;;;;;5.18;74.25;102002.80;1656753;85;21089;-50
2021/10/01 02:01:42;;;;;;;35.40;26.17;;;;;;;5.19;74.22;102004.47;1675911;84;21012;-48
2021/10/01 02:04:12;;;;;;;38.47;25.20;;;;;;;5.24;73.93;102003.66;1680223;84;21090;-50
2021/10/01 02:06:40;;;;;;;32.50;25.97;;;;;;;5.33;73.58;101998.19;1680200;84;21170;-50
2021/10/01 02:09:10;;;;;;;34.63;24.67;;;;;;;5.39;73.35;102000.38;1679818;84;21541;-50
2021/10/01 02:11:44;;;;;;;32.53;24.40;;;;;;;5.43;73.28;102002.31;1672841;84;21591;-50
2021/10/01 02:14:19;;;;;;;31.10;24.10;;;;;;;5.41;73.22;102000.27;1637118;86;21576;-49
2021/10/01 02:16:50;;;;;;;33.63;25.33;;;;;;;5.40;73.13;102003.36;1641833;86;21594;-49
2021/10/01 02:19:19;;;;;;;39.40;29.37;;;;;;;5.39;73.15;102003.50;1670028;84;21125;-50
2021/10/01 02:21:49;;;;;;;35.17;27.97;;;;;;;5.35;72.90;102002.02;1669098;84;21155;-49
2021/10/01 02:24:16;;;;;;;32.83;26.73;;;;;;;5.29;73.02;102002.48;1668773;83;21048;-50
2021/10/01 02:27:08;;;;;;;33.13;23.97;;;;;;;5.25;73.04;102008.02;1669246;84;21096;-49
2021/10/01 02:29:55;;;;;;;29.80;23.63;;;;;;;5.32;73.04;102008.88;1619749;85;21047;-49
2021/10/01 02:32:36;;;;;;;28.60;23.50;;;;;;;5.40;72.93;102012.62;1667932;84;21088;-50
2021/10/01 02:35:07;;;;;;;38.77;25.60;;;;;;;5.44;72.79;102014.56;1659107;83;21176;-50
2021/10/01 02:37:37;;;;;;;32.27;25.07;;;;;;;5.42;72.80;102016.48;1658547;85;21097;-51
2021/10/01 02:40:06;;;;;;;34.03;26.80;;;;;;;5.41;72.74;102011.67;1653945;85;21013;-51
2021/10/01 02:42:33;;;;;;;32.73;26.70;;;;;;;5.40;72.62;102019.23;1653252;85;21086;-51
2021/10/01 02:45:00;;;;;;;30.43;24.60;;;;;;;5.38;72.57;102023.80;1664778;84;20989;-50
2021/10/01 02:47:31;;;;;;;32.40;25.00;;;;;;;5.38;72.54;102016.34;1696214;83;20986;-51
2021/10/01 02:50:04;;;;;;;33.93;25.50;;;;;;;5.42;72.35;102014.67;1696275;83;21185;-52
2021/10/01 02:52:53;;;;;;;35.50;25.80;;;;;;;5.46;72.29;102012.64;1697570;83;21081;-50
2021/10/01 02:55:42;;;;;;;39.87;26.47;;;;;;;5.45;72.35;102021.55;1686648;84;21117;-51
2021/10/01 02:58:18;;;;;;;35.80;26.50;;;;;;;5.38;72.58;102016.34;1667961;84;21137;-49
2021/10/01 03:00:45;;;;;;;39.70;27.97;;;;;;;5.33;72.75;102027.73;1653153;84;21092;-51
2021/10/01 03:03:22;;;;;;;39.13;29.42;;;;;;;5.28;72.90;102021.96;1633529;86;21054;-50
2021/10/01 03:05:52;;;;;;;37.65;29.05;;;;;;;5.25;73.00;102025.20;1663362;85;21038;-49
2021/10/01 03:08:20;;;;;;;32.50;26.30;;;;;;;5.23;73.02;102023.11;1632873;86;21086;-49
2021/10/01 03:10:49;;;;;;;40.57;25.87;;;;;;;5.26;73.00;102026.87;1642312;85;21106;-50
2021/10/01 03:13:19;;;;;;;33.33;24.80;;;;;;;5.28;72.99;102026.77;1648420;85;21030;-50
2021/10/01 03:15:52;;;;;;;31.13;24.30;;;;;;;5.26;73.10;102020.26;1661069;84;21539;-50
2021/10/01 03:18:21;;;;;;;32.90;24.13;;;;;;;5.23;73.23;102021.79;1644181;86;21579;-51
2021/10/01 03:20:49;;;;;;;36.37;26.37;;;;;;;5.20;73.28;102026.00;1662227;84;21006;-50
2021/10/01 03:23:19;;;;;;;37.50;24.53;;;;;;;5.17;73.32;102022.73;1654556;83;21057;-50
2021/10/01 03:25:45;;;;;;;34.03;23.90;;;;;;;5.17;73.28;102027.53;1648217;85;21057;-50
2021/10/01 03:28:13;;;;;;;32.07;24.40;;;;;;;5.22;73.14;102023.25;1648373;85;21073;-52
2021/10/01 03:30:41;;;;;;;31.87;24.93;;;;;;;5.26;73.08;102028.67;1643869;85;21571;-49
2021/10/01 03:33:08;;;;;;;29.07;22.25;;;;;;;5.25;73.10;102033.13;1647252;84;21069;-49
2021/10/01 03:35:36;;;;;;;33.37;24.43;;;;;;;5.20;73.18;102023.36;1645199;85;21074;-51
2021/10/01 03:38:03;;;;;;;33.67;24.10;;;;;;;5.17;73.25;102027.53;1642383;85;21073;-51
2021/10/01 03:40:33;;;;;;;34.47;24.47;;;;;;;5.12;73.28;102029.66;1646552;85;21539;-51
2021/10/01 03:43:00;;;;;;;29.80;21.47;;;;;;;5.06;73.38;102028.79;1643976;85;21110;-50
2021/10/01 03:45:28;;;;;;;27.53;20.97;;;;;;;5.05;73.40;102033.23;1640900;85;21070;-51
2021/10/01 03:47:55;;;;;;;28.45;21.97;;;;;;;5.07;73.29;102030.50;1658116;85;21029;-50
2021/10/01 03:50:22;;;;;;;29.37;22.20;;;;;;;5.11;73.23;102039.88;1691362;83;21140;-50
2021/10/01 03:52:49;;;;;;;24.82;20.27;;;;;;;5.09;73.25;102041.80;1691460;83;21587;-50
2021/10/01 03:55:20;;;;;;;28.65;22.67;;;;;;;5.01;73.42;102043.67;1684731;82;21069;-50
2021/10/01 03:57:49;;;;;;;27.87;23.97;;;;;;;4.92;73.68;102049.61;1616542;87;21081;-50
2021/10/01 04:00:18;;;;;;;35.37;22.87;;;;;;;4.84;73.98;102042.69;1622898;86;21065;-50
2021/10/01 04:02:45;;;;;;;31.47;21.67;;;;;;;4.83;74.05;102041.02;1617756;86;21770;-51
2021/10/01 04:05:16;;;;;;;30.73;22.53;;;;;;;4.88;74.04;102043.70;1622209;86;21592;-52
2021/10/01 04:07:43;;;;;;;30.30;23.10;;;;;;;4.91;74.02;102046.59;1624344;87;21540;-50
2021/10/01 04:10:11;;;;;;;28.10;22.17;;;;;;;4.93;74.08;102050.45;1615952;87;21323;-50
2021/10/01 04:12:39;;;;;;;31.73;24.63;;;;;;;4.93;74.23;102046.48;1632060;85;21123;-50
2021/10/01 04:15:08;;;;;;;31.90;23.83;;;;;;;4.93;74.27;102043.84;1650480;85;21022;-53
2021/10/01 04:17:34;;;;;;;27.13;22.67;;;;;;;4.97;74.33;102046.63;1648377;85;21043;-49
2021/10/01 04:20:05;;;;;;;27.27;23.57;;;;;;;5.05;74.18;102053.06;1649978;85;21521;-49
2021/10/01 04:22:33;;;;;;;30.33;21.77;;;;;;;5.23;74.12;102054.00;1628892;86;21113;-51
2021/10/01 04:25:10;;;;;;;;;;;;;;;5.62;73.82;102048.08;1557334;91;21607;-51
2021/10/01 04:27:37;;;;;;;35.37;21.87;;;;;;;6.12;72.89;102054.51;1627275;87;20146;-52
2021/10/01 04:30:05;;;;;;;33.30;21.20;;;;;;;6.57;71.57;102049.27;1649657;85;21150;-53
2021/10/01 04:32:33;;;;;;;33.60;22.13;;;;;;;7.13;69.90;102056.34;1650186;85;21505;-50
2021/10/01 04:35:06;;;;;;;30.80;22.73;;;;;;;7.52;66.58;102049.59;1665609;84;21082;-51
2021/10/01 04:37:32;;;;;;;31.43;21.70;;;;;;;7.32;65.75;101982.73;1670604;84;21106;-51
2021/10/01 04:39:59;;;;;;;26.67;21.57;;;;;;;7.69;65.68;102046.87;1673652;84;21577;-52
2021/10/01 04:42:26;;;;;;;28.80;22.15;;;;;;;7.93;65.06;102043.12;1666346;84;21042;-51
2021/10/01 04:44:53;;;;;;;29.37;22.27;;;;;;;8.27;64.55;102045.56;1672341;84;21019;-51
2021/10/01 04:47:19;;;;;;;29.20;22.23;;;;;;;8.73;63.52;102048.28;1643746;84;21060;-52
2021/10/01 04:49:46;;;;;;;;;;;;;;;9.26;61.90;102047.16;1672575;84;21063;-51
2021/10/01 04:52:12;;;;;;;27.77;21.17;;;;;;;9.81;60.26;102054.59;1669722;84;20464;-54
2021/10/01 04:54:39;;;;;;;26.07;20.88;;;;;;;10.26;58.43;102050.80;1669053;84;21557;-55
2021/10/01 04:57:07;;;;;;;25.73;20.00;;;;;;;10.79;56.76;102051.21;1647852;84;21026;-52
2021/10/01 04:59:35;;;;;;;27.80;20.75;;;;;;;11.29;55.28;102056.13;1662971;84;21118;-54
2021/10/01 05:02:19;;;;;;;29.80;20.95;;;;;;;11.74;53.68;102055.22;1670295;84;21152;-53
2021/10/01 05:04:54;;;;;;;28.60;20.62;;;;;;;12.17;52.37;102060.27;1669312;84;21093;-53
2021/10/01 05:07:37;;;;;;;27.43;21.23;;;;;;;12.57;51.17;102060.67;1670360;84;21548;-53
2021/10/01 05:10:21;;;;;;;25.43;20.32;;;;;;;12.98;50.19;102062.19;1666636;84;21548;-53
2021/10/01 05:12:52;;;;;;;27.17;20.17;;;;;;;13.36;49.07;102066.16;1660271;84;21019;-53
2021/10/01 05:15:40;;;;;;;25.48;19.98;;;;;;;13.70;47.71;102066.53;1666680;84;21130;-54
2021/10/01 05:18:24;;;;;;;23.25;20.72;;;;;;;14.02;46.48;102058.98;1670501;84;21085;-53
2021/10/01 05:20:50;;;;;;;32.35;19.98;;;;;;;14.35;45.79;102065.66;1669409;84;21046;-55
2021/10/01 05:23:19;;;;;;;23.60;20.97;;;;;;;14.64;45.08;102068.80;1668239;84;20980;-53
2021/10/01 05:25:46;;;;;;;28.75;20.12;;;;;;;14.62;44.58;102023.83;1668275;84;21128;-66
2021/10/01 05:28:13;;;;;;;28.30;21.80;;;;;;;15.21;43.64;102067.19;1669190;84;21564;-55
2021/10/01 05:30:40;;;;;;;29.63;22.95;;;;;;;15.45;42.95;102068.06;1668403;84;21104;-53
2021/10/01 05:33:07;;;;;;;;;;;;;;;15.65;42.16;102071.09;1670011;84;21044;-56
2021/10/01 05:35:36;;;;;;;28.62;21.33;;;;;;;15.82;41.86;102067.28;1677693;84;20489;-55
2021/10/01 05:38:03;;;;;;;24.92;21.85;;;;;;;15.98;41.76;102070.87;1679012;84;21077;-55
2021/10/01 05:40:30;;;;;;;39.88;23.55;;;;;;;16.13;41.03;102066.35;1678862;84;21056;-56
2021/10/01 05:42:58;;;;;;;28.38;22.37;;;;;;;16.27;40.67;102069.55;1657612;85;20997;-53
2021/10/01 05:45:24;;;;;;;33.05;21.60;;;;;;;16.34;40.72;102075.05;1674025;83;21006;-54
2021/10/01 05:48:11;;;;;;;31.97;21.20;;;;;;;16.50;40.19;102073.54;1666783;84;21161;-56
2021/10/01 05:50:57;;;;;;;35.10;22.87;;;;;;;16.63;40.12;102072.89;1667839;84;21186;-56
2021/10/01 05:56:28;;;;;;;28.75;22.58;;;;;;;16.80;39.34;102066.80;1668119;84;21616;-55
2021/10/01 05:59:04;;;;;;;30.00;21.25;;;;;;;16.71;39.07;102073.30;1667447;84;22257;-55
2021/10/01 06:01:34;;;;;;;28.10;21.65;;;;;;;16.71;39.07;102073.30;1674975;84;21587;-59
2021/10/01 06:04:02;;;;;;;25.12;20.25;;;;;;;16.64;39.83;102076.41;1679959;84;21571;-63
2021/10/01 06:06:28;;;;;;;31.57;21.35;;;;;;;16.66;40.34;102076.54;1683446;84;21469;-59
2021/10/01 06:08:55;;;;;;;27.50;22.52;;;;;;;16.66;40.34;102076.54;1683446;84;21106;-61
2021/10/01 06:11:21;;;;;;;31.65;23.18;;;;;;;17.07;39.34;102076.59;1680661;84;21054;-57
2021/10/01 06:13:49;;;;;;;28.42;22.70;;;;;;;17.07;39.34;102076.59;1678935;84;21041;-55
2021/10/01 06:16:15;;;;;;;28.12;20.82;;;;;;;17.15;38.80;102075.11;1682012;84;21037;-57
2021/10/01 06:18:42;;;;;;;25.05;20.70;;;;;;;17.13;39.33;102075.82;1683300;84;21093;-57
2021/10/01 06:21:08;;;;;;;;;;;;;;;16.84;39.78;102076.20;1685837;84;20999;-55
2021/10/01 06:23:34;;;;;;;29.85;22.58;;;;;;;16.23;40.29;102090.30;1682936;84;20120;-54
2021/10/01 06:26:03;;;;;;;38.45;25.32;;;;;;;15.43;42.16;102084.88;1683416;84;21011;-55
2021/10/01 06:28:31;;;;;;;27.42;24.18;;;;;;;14.72;43.61;102086.20;1680307;84;21157;-53
2021/10/01 06:31:01;;;;;;;30.57;23.60;;;;;;;14.01;45.43;102092.19;1682739;84;21054;-53
2021/10/01 06:33:30;;;;;;;32.25;23.60;;;;;;;13.43;47.12;102093.97;1681299;82;21066;-52
2021/10/01 06:35:59;;;;;;;28.47;24.10;;;;;;;12.95;48.36;102094.11;1622420;86;21114;-52
2021/10/01 06:38:26;;;;;;;31.25;21.77;;;;;;;12.59;49.08;102095.61;1622021;86;21649;-51
2021/10/01 06:40:52;;;;;;;43.98;23.22;;;;;;;12.27;51.28;102093.06;1630013;86;21086;-51
2021/10/01 06:43:19;;;;;;;33.13;24.70;;;;;;;12.05;52.03;102097.10;1633112;86;21063;-52
2021/10/01 06:45:51;;;;;;;35.25;22.25;;;;;;;11.88;52.79;102092.09;1667624;84;21585;-50
2021/10/01 07:24:23;;;;;;;31.20;21.12;;;;;;;11.31;56.76;102102.20;1621166;86;21559;-52
2021/10/01 08:21:02;;;;;;;33.38;17.70;;;;;;;13.38;48.73;102076.20;1655749;85;21042;-50
2021/10/01 08:23:30;;;;;;;38.45;19.67;;;;;;;13.45;47.88;102071.05;1674204;84;21542;-50
2021/10/01 08:25:56;;;;;;;29.07;17.50;;;;;;;13.47;48.34;102075.73;1678736;84;21041;-50
2021/10/01 08:28:22;;;;;;;41.13;17.77;;;;;;;13.51;48.20;102074.39;1678396;84;21009;-50
2021/10/01 08:30:53;;;;;;;44.67;19.55;;;;;;;13.52;48.48;102073.88;1704435;82;21074;-50
2021/10/01 08:33:19;;;;;;;;;;;;;;;13.50;48.42;102073.21;1709167;83;21084;-51
2021/10/01 08:35:45;;;;;;;39.78;19.73;;;;;;;13.53;48.17;102068.88;1707288;82;20261;-52
2021/10/01 08:38:12;;;;;;;52.50;20.77;;;;;;;13.52;48.33;102068.02;1678769;84;21111;-51
2021/10/01 08:40:38;;;;;;;63.87;23.10;;;;;;;13.64;48.32;102067.22;1680371;84;21025;-49
2021/10/01 08:43:04;;;;;;;;;;;;;;;13.76;48.25;102069.05;1679906;84;21065;-53
2021/10/01 08:45:33;;;;;;;44.85;20.10;;;;;;;13.89;47.99;102064.53;1691365;83;20457;-51
2021/10/01 08:48:02;;;;;;;37.40;15.30;;;;;;;13.97;48.10;102065.35;1650259;85;21033;-52
2021/10/01 08:50:30;;;;;;;41.90;14.87;;;;;;;14.08;46.49;102061.50;1704875;82;21073;-53
2021/10/01 08:52:59;;;;;;;20.20;9.30;;;;;;;14.15;45.90;102058.48;1707558;83;21373;-51
2021/10/01 08:55:28;;;;;;;18.55;10.28;;;;;;;14.19;45.32;102065.17;1673548;83;21060;-52
2021/10/01 08:57:54;;;;;;;30.95;11.22;;;;;;;14.25;44.98;102065.50;1648112;86;22029;-52
2021/10/01 09:00:22;;;;;;;21.62;10.75;;;;;;;14.33;44.68;102055.58;1644894;85;21132;-51
2021/10/01 09:02:48;;;;;;;;;;;;;;;14.36;44.10;102055.24;1673566;84;22094;-51
2021/10/01 09:05:15;;;;;;;19.42;12.23;;;;;;;14.41;44.30;102058.26;1675287;84;20133;-52
2021/10/01 09:07:42;;;;;;;33.55;12.18;;;;;;;14.42;44.35;102063.11;1671783;84;21203;-54
2021/10/01 09:10:13;;;;;;;25.00;11.25;;;;;;;14.45;44.19;102061.44;1676885;84;21041;-53
2021/10/01 09:12:53;;;;;;;20.97;10.75;;;;;;;14.52;44.07;102061.57;1667821;84;21090;-53
2021/10/01 09:15:21;;;;;;;19.55;10.25;;;;;;;14.58;43.68;102062.28;1674667;84;21116;-52
2021/10/01 09:17:53;;;;;;;22.67;10.00;;;;;;;14.60;44.11;102059.74;1674052;84;21046;-53
2021/10/01 09:20:27;;;;;;;15.70;10.35;;;;;;;14.68;44.21;102055.36;1668308;84;21124;-53
2021/10/01 09:23:17;;;;;;;15.03;8.58;;;;;;;14.70;43.93;102054.17;1673107;83;21241;-52
2021/10/01 09:25:44;;;;;;;16.10;8.75;;;;;;;14.68;43.22;102056.70;1677011;84;21128;-49
2021/10/01 09:28:14;;;;;;;15.85;7.75;;;;;;;14.67;42.73;102055.02;1677088;84;21040;-53
2021/10/01 09:30:48;;;;;;;10.70;6.50;;;;;;;14.62;41.68;102050.66;1675118;84;21094;-53
2021/10/01 09:33:18;;;;;;;16.17;7.42;;;;;;;14.59;42.00;102054.03;1668397;84;20989;-53
2021/10/01 09:35:47;;;;;;;13.38;6.30;;;;;;;14.59;41.97;102045.98;1675352;84;21108;-52
2021/10/01 09:38:20;;;;;;;12.45;5.53;;;;;;;14.60;41.04;102048.18;1674568;84;21090;-51
2021/10/01 09:41:15;;;;;;;15.38;6.37;;;;;;;14.60;41.36;102042.30;1675320;84;22082;-51
2021/10/01 09:43:43;;;;;;;15.70;7.08;;;;;;;14.64;41.85;102044.65;1674091;84;21104;-52
2021/10/01 09:46:15;;;;;;;21.82;7.30;;;;;;;14.70;42.01;102042.09;1676371;84;21087;-51
2021/10/01 09:48:42;;;;;;;24.47;8.38;;;;;;;14.77;41.65;102043.08;1677182;84;21351;-51
2021/10/01 09:51:18;;;;;;;25.02;8.98;;;;;;;14.86;41.68;102041.20;1673956;84;21065;-53
2021/10/01 09:53:49;;;;;;;25.75;9.70;;;;;;;14.91;41.53;102028.06;1674453;84;21126;-53
2021/10/01 09:56:32;;;;;;;28.70;11.03;;;;;;;14.89;41.94;102036.80;1677450;84;21037;-51
2021/10/01 09:59:12;;;;;;;23.12;10.10;;;;;;;14.85;42.32;102036.83;1661044;84;21175;-53
2021/10/01 10:02:08;;;;;;;19.40;6.97;;;;;;;14.89;42.18;102034.63;1627507;86;21065;-52
2021/10/01 10:04:43;;;;;;;11.85;5.78;;;;;;;14.93;41.88;102029.23;1608448;87;21077;-53
2021/10/01 10:07:25;;;;;;;10.88;5.20;;;;;;;15.02;41.42;102031.38;1597534;88;21145;-52
2021/10/01 10:10:03;;;;;;;35.05;11.33;;;;;;;15.09;41.13;102016.24;1638928;86;21079;-53
2021/10/01 10:12:42;;;;;;;9.30;5.15;;;;;;;15.13;40.08;102022.92;1654845;84;21052;-51
2021/10/01 10:15:16;;;;;;;6.15;4.28;;;;;;;14.91;40.06;102025.89;1675163;84;21029;-50
2021/10/01 10:17:52;;;;;;;6.28;4.03;;;;;;;14.79;40.73;102021.43;1669372;84;21580;-52
2021/10/01 10:20:20;;;;;;;9.20;4.65;;;;;;;14.76;40.79;102017.73;1668071;84;21194;-52
2021/10/01 10:22:48;;;;;;;4.85;4.45;;;;;;;14.82;40.59;102010.84;1651362;84;21109;-51
2021/10/01 10:25:15;;;;;;;5.33;4.80;;;;;;;14.90;40.95;102009.44;1608378;87;21043;-51
2021/10/01 10:27:41;;;;;;;3.77;3.47;;;;;;;14.97;40.81;102007.25;1614538;87;21160;-51
2021/10/01 10:30:10;;;;;;;7.70;3.62;;;;;;;15.03;40.01;102006.19;1621984;87;21081;-50
2021/10/01 10:32:36;;;;;;;6.20;3.70;;;;;;;15.06;39.61;102013.38;1621618;87;21040;-51
2021/10/01 10:35:06;;;;;;;3.85;3.47;;;;;;;15.07;39.27;102006.16;1630619;86;21067;-51
2021/10/01 10:37:47;;;;;;;6.47;4.17;;;;;;;15.09;39.91;102003.64;1614917;87;21015;-52
2021/10/01 10:40:17;;;;;;;5.58;4.22;;;;;;;15.14;39.35;102004.44;1609084;87;21137;-51
2021/10/01 10:42:48;;;;;;;9.50;6.95;;;;;;;15.12;39.46;101999.75;1594631;88;21083;-51
2021/10/01 10:45:27;;;;;;;15.75;6.85;;;;;;;15.11;39.58;102005.64;1613991;84;21095;-50
2021/10/01 10:48:02;;;;;;;7.47;5.30;;;;;;;15.09;39.36;102001.47;1622946;87;21039;-49
2021/10/01 10:50:42;;;;;;;5.55;3.75;;;;;;;15.10;39.53;102008.50;1647358;85;21131;-51
2021/10/01 10:53:21;;;;;;;13.38;5.78;;;;;;;15.06;39.12;101997.79;1657530;85;21655;-52
2021/10/01 10:56:04;;;;;;;18.98;7.20;;;;;;;15.04;39.33;101995.79;1649938;84;21633;-52
2021/10/01 10:58:36;;;;;;;16.85;6.72;;;;;;;15.07;39.26;101995.41;1662652;85;21011;-52
2021/10/01 11:01:23;;;;;;;6.78;4.03;;;;;;;15.12;39.42;101991.70;1666818;85;21054;-51
2021/10/01 11:03:54;;;;;;;4.70;4.30;;;;;;;15.16;39.19;101988.98;1689592;83;21643;-50
2021/10/01 11:06:21;;;;;;;3.58;3.20;;;;;;;15.15;38.60;101979.27;1684922;83;20983;-52
2021/10/01 11:08:53;;;;;;;4.85;3.83;;;;;;;15.12;38.91;101976.92;1688220;83;20987;-52
2021/10/01 11:11:38;;;;;;;3.83;3.55;;;;;;;15.10;38.93;101970.38;1684645;83;21864;-53
2021/10/01 11:14:19;;;;;;;5.78;4.53;;;;;;;15.09;38.80;101969.25;1687096;83;21125;-50
2021/10/01 11:17:02;;;;;;;4.15;3.83;;;;;;;15.07;39.17;101965.39;1689327;83;21082;-51
2021/10/01 11:19:42;;;;;;;8.65;4.20;;;;;;;15.09;39.59;101961.19;1685726;83;21070;-53
2021/10/01 11:22:38;;;;;;;16.27;6.40;;;;;;;15.14;39.26;101965.01;1691605;83;21363;-51
2021/10/01 11:25:17;;;;;;;4.58;4.10;;;;;;;15.19;38.97;101964.45;1685147;83;21195;-51
2021/10/01 11:27:52;;;;;;;4.97;4.12;;;;;;;15.18;38.58;101968.14;1696451;83;21575;-52
2021/10/01 11:30:21;;;;;;;3.62;3.40;;;;;;;15.16;38.87;101964.32;1686389;83;21057;-52
2021/10/01 11:32:47;;;;;;;4.03;3.52;;;;;;;15.16;38.74;101960.77;1686277;83;21106;-50
2021/10/01 11:35:16;;;;;;;5.08;3.70;;;;;;;15.15;38.67;101953.75;1669795;83;21116;-51
2021/10/01 11:37:48;;;;;;;13.68;5.67;;;;;;;15.15;38.75;101956.44;1664881;84;21415;-52
2021/10/01 11:40:22;;;;;;;5.58;4.62;;;;;;;15.16;38.83;101955.41;1640331;85;21735;-52
2021/10/01 11:42:52;;;;;;;4.90;3.10;;;;;;;15.19;38.63;101954.55;1657563;84;21063;-50
2021/10/01 11:45:33;;;;;;;9.08;4.47;;;;;;;15.19;38.74;101952.37;1646196;85;21012;-51
2021/10/01 11:48:04;;;;;;;11.88;4.33;;;;;;;15.23;38.49;101949.65;1633344;85;21684;-53
2021/10/01 11:50:39;;;;;;;19.10;7.53;;;;;;;15.25;38.42;101944.10;1635329;86;21871;-51
2021/10/01 11:53:18;;;;;;;23.25;7.55;;;;;;;15.26;38.14;101943.92;1646235;85;21110;-52
2021/10/01 11:56:01;;;;;;;18.40;5.08;;;;;;;15.31;38.17;101934.83;1648087;84;21603;-57
2021/10/01 11:58:32;;;;;;;3.42;2.25;;;;;;;15.34;37.12;101955.11;1689346;84;21086;-52
2021/10/01 12:01:15;;;;;;;9.28;4.72;;;;;;;15.33;36.39;101939.52;1674443;84;21530;-51
2021/10/01 12:03:54;;;;;;;6.30;3.27;;;;;;;15.29;36.01;101939.52;1669454;84;21089;-53
2021/10/01 12:06:35;;;;;;;8.08;3.12;;;;;;;15.29;35.99;101935.48;1676799;84;21050;-51
2021/10/01 12:09:06;;;;;;;3.05;2.85;;;;;;;15.31;36.06;101944.23;1674682;84;21561;-52
2021/10/01 12:11:40;;;;;;;2.92;2.75;;;;;;;15.30;36.04;101935.83;1682609;84;21652;-53
2021/10/01 12:14:15;;;;;;;6.28;3.80;;;;;;;14.99;35.84;101874.13;1675170;84;21055;-51
2021/10/01 12:17:05;;;;;;;10.10;4.35;;;;;;;15.33;35.76;101927.42;1696278;84;21079;-52
2021/10/01 12:19:33;;;;;;;20.55;5.85;;;;;;;15.34;35.62;101922.88;1669216;84;21006;-51
2021/10/01 12:22:11;;;;;;;27.37;8.28;;;;;;;15.35;34.67;101918.67;1651770;85;21133;-51
2021/10/01 12:24:48;;;;;;;15.58;4.83;;;;;;;15.35;34.40;101909.75;1637826;86;21551;-50
2021/10/01 12:27:18;;;;;;;5.90;3.17;;;;;;;15.33;34.90;101911.79;1614298;87;21101;-51
2021/10/01 12:29:50;;;;;;;3.05;2.85;;;;;;;15.30;35.58;101915.69;1644207;85;21100;-53
2021/10/01 12:32:20;;;;;;;3.50;3.20;;;;;;;15.29;35.25;101908.63;1641415;86;21042;-53
2021/10/01 12:34:57;;;;;;;5.92;2.87;;;;;;;15.29;35.28;101914.52;1654278;86;21093;-50
2021/10/01 12:37:28;;;;;;;15.03;5.40;;;;;;;15.29;35.21;101912.66;1663295;84;21810;-51
2021/10/01 12:40:00;;;;;;;14.65;5.95;;;;;;;15.23;35.36;101907.19;1680196;84;21071;-49
2021/10/01 12:42:33;;;;;;;3.70;3.22;;;;;;;15.19;35.59;101908.05;1667230;84;21575;-50
2021/10/01 12:45:07;;;;;;;5.33;3.20;;;;;;;15.19;35.76;101899.48;1673328;84;21067;-52
2021/10/01 12:47:39;;;;;;;4.28;3.30;;;;;;;15.21;36.00;101901.99;1676111;84;21757;-51
2021/10/01 12:50:31;;;;;;;23.57;6.67;;;;;;;15.22;36.04;101892.93;1671579;84;21158;-54
2021/10/01 12:53:01;;;;;;;3.52;3.22;;;;;;;15.21;35.25;101894.45;1632989;84;21134;-53
2021/10/01 12:55:30;;;;;;;9.15;4.03;;;;;;;15.22;35.79;101898.30;1680116;84;21125;-52
2021/10/01 12:57:56;;;;;;;4.95;2.25;;;;;;;15.28;35.78;101897.57;1683340;85;21501;-58
2021/10/01 13:00:31;;;;;;;3.50;3.20;;;;;;;15.32;35.83;101900.22;1685005;84;21676;-55
2021/10/01 13:03:08;;;;;;;4.80;3.20;;;;;;;15.36;35.60;101896.14;1682791;84;21490;-53
2021/10/01 13:05:42;;;;;;;2.67;2.52;;;;;;;15.41;35.31;101888.04;1684129;84;21090;-53
2021/10/01 13:08:15;;;;;;;4.10;3.47;;;;;;;15.43;35.43;101880.14;1684155;84;21046;-55
2021/10/01 13:10:59;;;;;;;2.75;2.55;;;;;;;15.46;35.39;101884.30;1685916;84;21089;-53
2021/10/01 13:13:33;;;;;;;4.62;2.27;;;;;;;15.48;35.56;101880.44;1673963;84;21544;-52
2021/10/01 13:16:03;;;;;;;9.08;1.72;;;;;;;15.50;35.47;101878.88;1671274;84;21185;-52